Dijksgracht — PBNQ — position and weather

sailwx.info

Track history (hours):
 
Tides and Currents Weather Stations Pressure Air Temp Water Temp Dewpoint Dewpoint Depression Visibility Wind Speed Wind Dir Waves Ship Positions

Dijksgracht

Last reported at 2018-Feb-17 16:37 UTC. Time now 2018-Feb-17 23:52 UTC.
Position N 59°56' E 029°42'.

Length 157 m; draft 6.4 m.

Type: Cargo ship. MMSI: 244670592.

Date/timePositionNaut miles runAvg speedWind from/ knotsBaromVisibWave heightAir tempDewpointWater temp
2018-Feb-17 16:37N 59°56' E 029°42'0 0.0
2018-Feb-17 15:37N 59°56' E 029°42'0 0.0
2018-Feb-17 15:13N 59°56' E 029°42'0 0.0
2018-Feb-17 14:55N 59°56' E 029°42'0 0.0
2018-Feb-17 14:25N 59°56' E 029°42'0 0.0
2018-Feb-17 13:43N 59°56' E 029°42'0 0.0
2018-Feb-17 12:28N 59°56' E 029°42'0 0.0
2018-Feb-17 11:46N 59°56' E 029°42'0 0.0
2018-Feb-17 05:28N 59°56' E 029°42'0 0.0
2018-Feb-17 01:22N 59°56' E 029°42'0 0.0
2018-Feb-17 00:58N 59°56' E 029°42'0 0.0
2018-Feb-17 00:25N 59°56' E 029°42'0 0.0
2018-Feb-16 23:58N 59°56' E 029°42'0 0.0
2018-Feb-16 23:25N 59°56' E 029°42'0 0.0
2018-Feb-16 22:58N 59°56' E 029°42'0 0.0
2018-Feb-16 22:28N 59°56' E 029°42'0 0.0
2018-Feb-16 21:58N 59°56' E 029°42'0 0.0
2018-Feb-16 17:04N 59°56' E 029°42'0 0.0
2018-Feb-16 16:55N 59°56' E 029°42'0 0.0
2018-Feb-16 16:25N 59°56' E 029°42'0 0.0
2018-Feb-16 15:58N 59°56' E 029°42'0 0.0
2018-Feb-16 15:28N 59°56' E 029°42'0 0.0
2018-Feb-16 14:58N 59°56' E 029°42'0 0.1
2018-Feb-16 14:28N 59°56' E 029°42'1 2.7
2018-Feb-16 13:58N 59°57' E 029°44'3 6.8
2018-Feb-16 13:29N 59°60' E 029°40'16 5.2
2018-Feb-16 10:27N 60°02' E 029°09'2 4.4
2018-Feb-16 09:57N 60°02' E 029°04'2 5.1
2018-Feb-16 09:28N 60°02' E 028°59'4 7.7
2018-Feb-16 08:59N 60°02' E 028°52'714.0
2018-Feb-16 08:30N 60°02' E 028°38'714.3
2018-Feb-16 08:00N 60°03' E 028°24'612.9
2018-Feb-16 07:30N 60°07' E 028°14'611.4
2018-Feb-16 07:00N 60°09' E 028°03'713.9
2018-Feb-16 06:30N 60°10' E 027°49'511.0
2018-Feb-16 06:00N 60°09' E 027°39'713.2
2018-Feb-16 05:30N 60°05' E 027°27'815.3
2018-Feb-16 05:00N 60°01' E 027°14'816.2
2018-Feb-16 04:30N 59°58' E 026°59'1215.5
2018-Feb-16 03:45N 59°59' E 026°36'515.1
2018-Feb-16 03:27N 59°58' E 026°27'3415.2
2018-Feb-16 01:12N 59°49' E 025°21'315.7
2018-Feb-16 01:00N 59°49' E 025°16'815.4
2018-Feb-16 00:31N 59°47' E 025°01'815.4
2018-Feb-16 00:00N 59°46' E 024°46'815.3
2018-Feb-15 23:31N 59°44' E 024°31'815.6
2018-Feb-15 23:00N 59°43' E 024°16'815.7
2018-Feb-15 22:30N 59°41' E 024°00'815.7
2018-Feb-15 22:00N 59°38' E 023°46'815.4
2018-Feb-15 21:30N 59°35' E 023°32'815.2
2018-Feb-15 21:01N 59°33' E 023°18'28715.6
2018-Feb-15 02:35N 56°08' E 016°58'216.6
2018-Feb-15 02:26N 56°07' E 016°55'716.7
2018-Feb-15 02:01N 56°02' E 016°45'816.6
2018-Feb-15 01:31N 55°58' E 016°32'816.6
2018-Feb-15 01:01N 55°55' E 016°18'816.6
2018-Feb-15 00:31N 55°50' E 016°06'816.6
2018-Feb-15 00:00N 55°46' E 015°53'816.7
2018-Feb-14 23:30N 55°41' E 015°41'816.5
2018-Feb-14 23:00N 55°38' E 015°27'816.6
2018-Feb-14 22:30N 55°34' E 015°14'916.5
2018-Feb-14 21:56N 55°30' E 014°59'716.5
2018-Feb-14 21:30N 55°27' E 014°48'816.3
2018-Feb-14 21:00N 55°22' E 014°37'816.7
2018-Feb-14 20:30N 55°15' E 014°28'816.5
2018-Feb-14 20:01N 55°09' E 014°19'916.5
2018-Feb-14 19:28N 55°02' E 014°09'715.9
2018-Feb-14 19:00N 54°59' E 013°57'916.3
2018-Feb-14 18:27N 54°57' E 013°42'4316.1
2018-Feb-14 15:46N 54°41' E 012°32'516.3
2018-Feb-14 15:28N 54°38' E 012°25'715.9
2018-Feb-14 15:01N 54°33' E 012°17'1613.5
2018-Feb-14 13:49N 54°25' E 011°53'516.2
2018-Feb-14 13:30N 54°25' E 011°44'816.7
2018-Feb-14 13:00N 54°29' E 011°31'816.3
2018-Feb-14 12:31N 54°33' E 011°19'816.1
2018-Feb-14 12:01N 54°36' E 011°06'816.0
2018-Feb-14 11:30N 54°41' E 010°55'714.3
2018-Feb-14 11:01N 54°48' E 010°52'714.9
2018-Feb-14 10:31N 54°55' E 010°54'815.1
2018-Feb-14 10:01N 55°01' E 011°01'816.0
2018-Feb-14 09:31N 55°09' E 011°03'714.3
2018-Feb-14 09:01N 55°17' E 011°03'815.2
2018-Feb-14 08:31N 55°24' E 010°60'1716.2
2018-Feb-14 07:29N 55°39' E 010°46'8415.4
2018-Feb-14 02:03N 56°56' E 011°45'115.9
2018-Feb-14 02:00N 56°56' E 011°45'816.4
2018-Feb-14 01:30N 57°04' E 011°40'816.1
2018-Feb-14 01:00N 57°11' E 011°34'815.4
2018-Feb-14 00:30N 57°19' E 011°29'816.0
2018-Feb-14 00:00N 57°26' E 011°24'815.4
2018-Feb-13 23:31N 57°32' E 011°15'815.3
2018-Feb-13 23:00N 57°37' E 011°04'815.3
2018-Feb-13 22:31N 57°42' E 010°54'816.0
2018-Feb-13 22:01N 57°47' E 010°42'917.5
2018-Feb-13 21:30N 57°48' E 010°26'17716.5
2018-Feb-13 10:47N 55°39' E 006°45'517.0
2018-Feb-13 10:30N 55°35' E 006°41'1117.0
2018-Feb-13 09:52N 55°26' E 006°31'617.1
2018-Feb-13 09:30N 55°21' E 006°25'14417.2
2018-Feb-13 01:06N 53°12' E 004°34'217.6
2018-Feb-13 00:58N 53°10' E 004°32'817.4
2018-Feb-13 00:31N 53°03' E 004°25'816.9
2018-Feb-13 00:01N 52°56' E 004°18'916.7
2018-Feb-12 23:30N 52°48' E 004°11'1116.5
2018-Feb-12 22:50N 52°39' E 004°02'616.5
2018-Feb-12 22:29N 52°34' E 003°57'816.3
2018-Feb-12 22:00N 52°27' E 003°53'816.0
2018-Feb-12 21:31N 52°19' E 003°53'816.2
2018-Feb-12 21:00N 52°11' E 003°54'714.7
2018-Feb-12 20:30N 52°03' E 003°55'5 9.3
2018-Feb-12 20:00N 52°00' E 004°01'713.3
2018-Feb-12 19:30N 51°57' E 004°10'612.7
2018-Feb-12 19:00N 51°54' E 004°19'4 8.7
2018-Feb-12 18:30N 51°54' E 004°26'0 0.6
2018-Feb-12 17:59N 51°54' E 004°26'0 0.0
2018-Feb-12 17:29N 51°54' E 004°26'0 0.0
2018-Feb-12 16:59N 51°54' E 004°26'0 0.0
2018-Feb-12 16:29N 51°54' E 004°26'0 0.0
2018-Feb-12 15:59N 51°54' E 004°26'0 0.0
2018-Feb-12 15:29N 51°54' E 004°26'0 0.0
2018-Feb-12 14:56N 51°54' E 004°26'0 0.0
2018-Feb-12 14:29N 51°54' E 004°26'0 0.0
2018-Feb-12 13:59N 51°54' E 004°26'0 0.0
2018-Feb-12 13:26N 51°54' E 004°26'0 0.0
2018-Feb-12 12:59N 51°54' E 004°26'0 0.0
2018-Feb-12 12:29N 51°54' E 004°26'0 0.0
2018-Feb-12 11:59N 51°54' E 004°26'0 0.0
2018-Feb-12 11:29N 51°54' E 004°26'0 0.0
2018-Feb-12 10:59N 51°54' E 004°26'0 0.0
2018-Feb-12 10:23N 51°54' E 004°26'0 0.0
2018-Feb-12 09:59N 51°54' E 004°26'0 0.0
2018-Feb-12 09:29N 51°54' E 004°26'0 0.0
2018-Feb-12 08:56N 51°54' E 004°26'0 0.0
2018-Feb-12 08:29N 51°54' E 004°26'0 0.0
2018-Feb-12 07:59N 51°54' E 004°26'0 0.0
2018-Feb-12 07:29N 51°54' E 004°26'0 0.0
2018-Feb-12 06:59N 51°54' E 004°26'0 0.0
2018-Feb-12 06:29N 51°54' E 004°26'0 0.0
2018-Feb-12 05:59N 51°54' E 004°26'0 0.0
2018-Feb-12 05:29N 51°54' E 004°26'0 0.0
2018-Feb-12 04:59N 51°54' E 004°26'0 0.0
2018-Feb-12 04:29N 51°54' E 004°26'0 0.0
2018-Feb-12 03:59N 51°54' E 004°26'0 0.0
2018-Feb-12 03:29N 51°54' E 004°26'0 0.0
2018-Feb-12 02:56N 51°54' E 004°26'0 0.0
2018-Feb-12 02:29N 51°54' E 004°26'0 0.0
2018-Feb-12 01:59N 51°54' E 004°26'0 0.0
2018-Feb-12 01:29N 51°54' E 004°26'0 0.0
2018-Feb-12 00:59N 51°54' E 004°26'0 0.0
2018-Feb-12 00:29N 51°54' E 004°26'0 0.0
2018-Feb-11 23:59N 51°54' E 004°26'0 0.0
2018-Feb-11 23:29N 51°54' E 004°26'0 0.0
2018-Feb-11 22:59N 51°54' E 004°26'0 0.0
2018-Feb-11 22:29N 51°54' E 004°26'0 0.0
2018-Feb-11 21:59N 51°54' E 004°26'0 0.0
2018-Feb-11 21:29N 51°54' E 004°26'0 0.0
2018-Feb-11 20:59N 51°54' E 004°26'0 0.0
2018-Feb-11 20:29N 51°54' E 004°26'0 0.0
2018-Feb-11 19:59N 51°54' E 004°26'0 0.0
2018-Feb-11 19:29N 51°54' E 004°26'0 0.0
2018-Feb-11 18:59N 51°54' E 004°26'0 0.0
2018-Feb-11 18:29N 51°54' E 004°26'0 0.0
2018-Feb-11 17:59N 51°54' E 004°26'0 0.0
2018-Feb-11 17:29N 51°54' E 004°26'0 0.0
2018-Feb-11 16:59N 51°54' E 004°26'0 0.0
2018-Feb-11 16:29N 51°54' E 004°26'0 0.0
2018-Feb-11 15:59N 51°54' E 004°26'0 0.0
2018-Feb-11 15:29N 51°54' E 004°26'0 0.0
2018-Feb-11 14:59N 51°54' E 004°26'0 0.0
2018-Feb-11 14:29N 51°54' E 004°26'0 0.0
2018-Feb-11 13:59N 51°54' E 004°26'0 0.0
2018-Feb-11 13:29N 51°54' E 004°26'0 0.0
2018-Feb-11 12:59N 51°54' E 004°26'0 0.0
2018-Feb-11 12:29N 51°54' E 004°26'0 0.0
2018-Feb-11 11:59N 51°54' E 004°26'0 0.0
2018-Feb-11 11:29N 51°54' E 004°26'0 0.0
2018-Feb-11 10:59N 51°54' E 004°26'0 0.0
2018-Feb-11 10:29N 51°54' E 004°26'1 1.3
2018-Feb-11 10:01N 51°54' E 004°25'4 8.9
2018-Feb-11 09:30N 51°54' E 004°18'714.4
2018-Feb-11 09:00N 51°58' E 004°08'815.6
2018-Feb-11 08:30N 51°60' E 003°56'510.1
2018-Feb-11 08:00N 51°60' E 003°48'2413.6
2018-Feb-11 06:14N 51°53' E 003°10'313.7
2018-Feb-11 06:01N 51°52' E 003°06'1813.3
2018-Feb-11 04:38N 51°46' E 002°38'213.3
2018-Feb-11 04:28N 51°44' E 002°35'613.3
2018-Feb-11 04:00N 51°40' E 002°29'612.9
2018-Feb-11 03:30N 51°35' E 002°22'713.2
2018-Feb-11 03:00N 51°30' E 002°15'612.7
2018-Feb-11 02:30N 51°25' E 002°09'612.7
2018-Feb-11 02:00N 51°19' E 002°07'611.9
2018-Feb-11 01:30N 51°13' E 002°04'612.9
2018-Feb-11 01:00N 51°10' E 001°55'612.6
2018-Feb-11 00:30N 51°07' E 001°46'613.0
2018-Feb-11 00:01N 51°02' E 001°40'713.3
2018-Feb-10 23:31N 50°57' E 001°33'713.7
2018-Feb-10 23:00N 50°51' E 001°27'713.7
2018-Feb-10 22:29N 50°44' E 001°23'5112.0
2018-Feb-10 18:12N 50°22' E 000°10'313.0
2018-Feb-10 18:00N 50°22' E 000°06'713.5
2018-Feb-10 17:29N 50°20' W 000°04'713.0
2018-Feb-10 16:56N 50°18' W 000°15'2713.2
2018-Feb-10 14:56N 50°10' W 000°55'613.2
2018-Feb-10 14:30N 50°09' W 001°03'713.3
2018-Feb-10 14:01N 50°07' W 001°13'713.3
2018-Feb-10 13:31N 50°05' W 001°23'713.3
2018-Feb-10 13:00N 50°04' W 001°33'713.5
2018-Feb-10 12:30N 50°02' W 001°43'713.3
2018-Feb-10 12:00N 49°60' W 001°53'713.2
2018-Feb-10 11:30N 49°59' W 002°03'13513.3
2018-Feb-10 01:20N 48°57' W 005°09'514.3
2018-Feb-10 00:59N 48°55' W 005°16'817.0
2018-Feb-10 00:30N 48°51' W 005°27'1215.6
2018-Feb-09 23:44N 48°43' W 005°40'716.8
2018-Feb-09 23:20N 48°37' W 005°45'61015.1
2018-Feb-08 07:00N 38°54' W 009°53'1212.2
2018-Feb-08 06:00N 38°42' W 009°51'1111.1
2018-Feb-08 05:00N 38°31' W 009°49'510.8
2018-Feb-08 04:30N 38°26' W 009°47'2110.3
2018-Feb-08 02:30N 38°06' W 009°40'1211.3
2018-Feb-08 01:27N 37°54' W 009°38'512.1
2018-Feb-08 01:00N 37°49' W 009°37'612.1
2018-Feb-08 00:30N 37°43' W 009°35'611.7
2018-Feb-08 00:00N 37°37' W 009°34'  
Track history (hours):
 
Tides and Currents Weather Stations Pressure Air Temp Water Temp Dewpoint Dewpoint Depression Visibility Wind Speed Wind Dir Waves Ship Positions

Dijksgracht

Last reported at 2018-Feb-17 16:37 UTC. Time now 2018-Feb-17 23:52 UTC.
Position N 59°56' E 029°42'.

Length 157 m; draft 6.4 m.

Type: Cargo ship. MMSI: 244670592.

Date/timePositionNaut miles runAvg speedWind from/ knotsBaromVisibWave heightAir tempDewpointWater temp
2018-Feb-17 16:37N 59°56' E 029°42'0 0.0
2018-Feb-17 15:37N 59°56' E 029°42'0 0.0
2018-Feb-17 15:13N 59°56' E 029°42'0 0.0
2018-Feb-17 14:55N 59°56' E 029°42'0 0.0
2018-Feb-17 14:25N 59°56' E 029°42'0 0.0
2018-Feb-17 13:43N 59°56' E 029°42'0 0.0
2018-Feb-17 12:28N 59°56' E 029°42'0 0.0
2018-Feb-17 11:46N 59°56' E 029°42'0 0.0
2018-Feb-17 05:28N 59°56' E 029°42'0 0.0
2018-Feb-17 01:22N 59°56' E 029°42'0 0.0
2018-Feb-17 00:58N 59°56' E 029°42'0 0.0
2018-Feb-17 00:25N 59°56' E 029°42'0 0.0
2018-Feb-16 23:58N 59°56' E 029°42'0 0.0
2018-Feb-16 23:25N 59°56' E 029°42'0 0.0
2018-Feb-16 22:58N 59°56' E 029°42'0 0.0
2018-Feb-16 22:28N 59°56' E 029°42'0 0.0
2018-Feb-16 21:58N 59°56' E 029°42'0 0.0
2018-Feb-16 17:04N 59°56' E 029°42'0 0.0
2018-Feb-16 16:55N 59°56' E 029°42'0 0.0
2018-Feb-16 16:25N 59°56' E 029°42'0 0.0
2018-Feb-16 15:58N 59°56' E 029°42'0 0.0
2018-Feb-16 15:28N 59°56' E 029°42'0 0.0
2018-Feb-16 14:58N 59°56' E 029°42'0 0.1
2018-Feb-16 14:28N 59°56' E 029°42'1 2.7
2018-Feb-16 13:58N 59°57' E 029°44'3 6.8
2018-Feb-16 13:29N 59°60' E 029°40'16 5.2
2018-Feb-16 10:27N 60°02' E 029°09'2 4.4
2018-Feb-16 09:57N 60°02' E 029°04'2 5.1
2018-Feb-16 09:28N 60°02' E 028°59'4 7.7
2018-Feb-16 08:59N 60°02' E 028°52'714.0
2018-Feb-16 08:30N 60°02' E 028°38'714.3
2018-Feb-16 08:00N 60°03' E 028°24'612.9
2018-Feb-16 07:30N 60°07' E 028°14'611.4
2018-Feb-16 07:00N 60°09' E 028°03'713.9
2018-Feb-16 06:30N 60°10' E 027°49'511.0
2018-Feb-16 06:00N 60°09' E 027°39'713.2
2018-Feb-16 05:30N 60°05' E 027°27'815.3
2018-Feb-16 05:00N 60°01' E 027°14'816.2
2018-Feb-16 04:30N 59°58' E 026°59'1215.5
2018-Feb-16 03:45N 59°59' E 026°36'515.1
2018-Feb-16 03:27N 59°58' E 026°27'3415.2
2018-Feb-16 01:12N 59°49' E 025°21'315.7
2018-Feb-16 01:00N 59°49' E 025°16'815.4
2018-Feb-16 00:31N 59°47' E 025°01'815.4
2018-Feb-16 00:00N 59°46' E 024°46'815.3
2018-Feb-15 23:31N 59°44' E 024°31'815.6
2018-Feb-15 23:00N 59°43' E 024°16'815.7
2018-Feb-15 22:30N 59°41' E 024°00'815.7
2018-Feb-15 22:00N 59°38' E 023°46'815.4
2018-Feb-15 21:30N 59°35' E 023°32'815.2
2018-Feb-15 21:01N 59°33' E 023°18'28715.6
2018-Feb-15 02:35N 56°08' E 016°58'216.6
2018-Feb-15 02:26N 56°07' E 016°55'716.7
2018-Feb-15 02:01N 56°02' E 016°45'816.6
2018-Feb-15 01:31N 55°58' E 016°32'816.6
2018-Feb-15 01:01N 55°55' E 016°18'816.6
2018-Feb-15 00:31N 55°50' E 016°06'816.6
2018-Feb-15 00:00N 55°46' E 015°53'816.7
2018-Feb-14 23:30N 55°41' E 015°41'816.5
2018-Feb-14 23:00N 55°38' E 015°27'816.6
2018-Feb-14 22:30N 55°34' E 015°14'916.5
2018-Feb-14 21:56N 55°30' E 014°59'716.5
2018-Feb-14 21:30N 55°27' E 014°48'816.3
2018-Feb-14 21:00N 55°22' E 014°37'816.7
2018-Feb-14 20:30N 55°15' E 014°28'816.5
2018-Feb-14 20:01N 55°09' E 014°19'916.5
2018-Feb-14 19:28N 55°02' E 014°09'715.9
2018-Feb-14 19:00N 54°59' E 013°57'916.3
2018-Feb-14 18:27N 54°57' E 013°42'4316.1
2018-Feb-14 15:46N 54°41' E 012°32'516.3
2018-Feb-14 15:28N 54°38' E 012°25'715.9
2018-Feb-14 15:01N 54°33' E 012°17'1613.5
2018-Feb-14 13:49N 54°25' E 011°53'516.2
2018-Feb-14 13:30N 54°25' E 011°44'816.7
2018-Feb-14 13:00N 54°29' E 011°31'816.3
2018-Feb-14 12:31N 54°33' E 011°19'816.1
2018-Feb-14 12:01N 54°36' E 011°06'816.0
2018-Feb-14 11:30N 54°41' E 010°55'714.3
2018-Feb-14 11:01N 54°48' E 010°52'714.9
2018-Feb-14 10:31N 54°55' E 010°54'815.1
2018-Feb-14 10:01N 55°01' E 011°01'816.0
2018-Feb-14 09:31N 55°09' E 011°03'714.3
2018-Feb-14 09:01N 55°17' E 011°03'815.2
2018-Feb-14 08:31N 55°24' E 010°60'1716.2
2018-Feb-14 07:29N 55°39' E 010°46'8415.4
2018-Feb-14 02:03N 56°56' E 011°45'115.9
2018-Feb-14 02:00N 56°56' E 011°45'816.4
2018-Feb-14 01:30N 57°04' E 011°40'816.1
2018-Feb-14 01:00N 57°11' E 011°34'815.4
2018-Feb-14 00:30N 57°19' E 011°29'816.0
2018-Feb-14 00:00N 57°26' E 011°24'815.4
2018-Feb-13 23:31N 57°32' E 011°15'815.3
2018-Feb-13 23:00N 57°37' E 011°04'815.3
2018-Feb-13 22:31N 57°42' E 010°54'816.0
2018-Feb-13 22:01N 57°47' E 010°42'917.5
2018-Feb-13 21:30N 57°48' E 010°26'17716.5
2018-Feb-13 10:47N 55°39' E 006°45'517.0
2018-Feb-13 10:30N 55°35' E 006°41'1117.0
2018-Feb-13 09:52N 55°26' E 006°31'617.1
2018-Feb-13 09:30N 55°21' E 006°25'14417.2
2018-Feb-13 01:06N 53°12' E 004°34'217.6
2018-Feb-13 00:58N 53°10' E 004°32'817.4
2018-Feb-13 00:31N 53°03' E 004°25'816.9
2018-Feb-13 00:01N 52°56' E 004°18'916.7
2018-Feb-12 23:30N 52°48' E 004°11'1116.5
2018-Feb-12 22:50N 52°39' E 004°02'616.5
2018-Feb-12 22:29N 52°34' E 003°57'816.3
2018-Feb-12 22:00N 52°27' E 003°53'816.0
2018-Feb-12 21:31N 52°19' E 003°53'816.2
2018-Feb-12 21:00N 52°11' E 003°54'714.7
2018-Feb-12 20:30N 52°03' E 003°55'5 9.3
2018-Feb-12 20:00N 52°00' E 004°01'713.3
2018-Feb-12 19:30N 51°57' E 004°10'612.7
2018-Feb-12 19:00N 51°54' E 004°19'4 8.7
2018-Feb-12 18:30N 51°54' E 004°26'0 0.6
2018-Feb-12 17:59N 51°54' E 004°26'0 0.0
2018-Feb-12 17:29N 51°54' E 004°26'0 0.0
2018-Feb-12 16:59N 51°54' E 004°26'0 0.0
2018-Feb-12 16:29N 51°54' E 004°26'0 0.0
2018-Feb-12 15:59N 51°54' E 004°26'0 0.0
2018-Feb-12 15:29N 51°54' E 004°26'0 0.0
2018-Feb-12 14:56N 51°54' E 004°26'0 0.0
2018-Feb-12 14:29N 51°54' E 004°26'0 0.0
2018-Feb-12 13:59N 51°54' E 004°26'0 0.0
2018-Feb-12 13:26N 51°54' E 004°26'0 0.0
2018-Feb-12 12:59N 51°54' E 004°26'0 0.0
2018-Feb-12 12:29N 51°54' E 004°26'0 0.0
2018-Feb-12 11:59N 51°54' E 004°26'0 0.0
2018-Feb-12 11:29N 51°54' E 004°26'0 0.0
2018-Feb-12 10:59N 51°54' E 004°26'0 0.0
2018-Feb-12 10:23N 51°54' E 004°26'0 0.0
2018-Feb-12 09:59N 51°54' E 004°26'0 0.0
2018-Feb-12 09:29N 51°54' E 004°26'0 0.0
2018-Feb-12 08:56N 51°54' E 004°26'0 0.0
2018-Feb-12 08:29N 51°54' E 004°26'0 0.0
2018-Feb-12 07:59N 51°54' E 004°26'0 0.0
2018-Feb-12 07:29N 51°54' E 004°26'0 0.0
2018-Feb-12 06:59N 51°54' E 004°26'0 0.0
2018-Feb-12 06:29N 51°54' E 004°26'0 0.0
2018-Feb-12 05:59N 51°54' E 004°26'0 0.0
2018-Feb-12 05:29N 51°54' E 004°26'0 0.0
2018-Feb-12 04:59N 51°54' E 004°26'0 0.0
2018-Feb-12 04:29N 51°54' E 004°26'0 0.0
2018-Feb-12 03:59N 51°54' E 004°26'0 0.0
2018-Feb-12 03:29N 51°54' E 004°26'0 0.0
2018-Feb-12 02:56N 51°54' E 004°26'0 0.0
2018-Feb-12 02:29N 51°54' E 004°26'0 0.0
2018-Feb-12 01:59N 51°54' E 004°26'0 0.0
2018-Feb-12 01:29N 51°54' E 004°26'0 0.0
2018-Feb-12 00:59N 51°54' E 004°26'0 0.0
2018-Feb-12 00:29N 51°54' E 004°26'0 0.0
2018-Feb-11 23:59N 51°54' E 004°26'0 0.0
2018-Feb-11 23:29N 51°54' E 004°26'0 0.0
2018-Feb-11 22:59N 51°54' E 004°26'0 0.0
2018-Feb-11 22:29N 51°54' E 004°26'0 0.0
2018-Feb-11 21:59N 51°54' E 004°26'0 0.0
2018-Feb-11 21:29N 51°54' E 004°26'0 0.0
2018-Feb-11 20:59N 51°54' E 004°26'0 0.0
2018-Feb-11 20:29N 51°54' E 004°26'0 0.0
2018-Feb-11 19:59N 51°54' E 004°26'0 0.0
2018-Feb-11 19:29N 51°54' E 004°26'0 0.0
2018-Feb-11 18:59N 51°54' E 004°26'0 0.0
2018-Feb-11 18:29N 51°54' E 004°26'0 0.0
2018-Feb-11 17:59N 51°54' E 004°26'0 0.0
2018-Feb-11 17:29N 51°54' E 004°26'0 0.0
2018-Feb-11 16:59N 51°54' E 004°26'0 0.0
2018-Feb-11 16:29N 51°54' E 004°26'0 0.0
2018-Feb-11 15:59N 51°54' E 004°26'0 0.0
2018-Feb-11 15:29N 51°54' E 004°26'0 0.0
2018-Feb-11 14:59N 51°54' E 004°26'0 0.0
2018-Feb-11 14:29N 51°54' E 004°26'0 0.0
2018-Feb-11 13:59N 51°54' E 004°26'0 0.0
2018-Feb-11 13:29N 51°54' E 004°26'0 0.0
2018-Feb-11 12:59N 51°54' E 004°26'0 0.0
2018-Feb-11 12:29N 51°54' E 004°26'0 0.0
2018-Feb-11 11:59N 51°54' E 004°26'0 0.0
2018-Feb-11 11:29N 51°54' E 004°26'0 0.0
2018-Feb-11 10:59N 51°54' E 004°26'0 0.0
2018-Feb-11 10:29N 51°54' E 004°26'1 1.3
2018-Feb-11 10:01N 51°54' E 004°25'4 8.9
2018-Feb-11 09:30N 51°54' E 004°18'714.4
2018-Feb-11 09:00N 51°58' E 004°08'815.6
2018-Feb-11 08:30N 51°60' E 003°56'510.1
2018-Feb-11 08:00N 51°60' E 003°48'2413.6
2018-Feb-11 06:14N 51°53' E 003°10'313.7
2018-Feb-11 06:01N 51°52' E 003°06'1813.3
2018-Feb-11 04:38N 51°46' E 002°38'213.3
2018-Feb-11 04:28N 51°44' E 002°35'613.3
2018-Feb-11 04:00N 51°40' E 002°29'612.9
2018-Feb-11 03:30N 51°35' E 002°22'713.2
2018-Feb-11 03:00N 51°30' E 002°15'612.7
2018-Feb-11 02:30N 51°25' E 002°09'612.7
2018-Feb-11 02:00N 51°19' E 002°07'611.9
2018-Feb-11 01:30N 51°13' E 002°04'612.9
2018-Feb-11 01:00N 51°10' E 001°55'612.6
2018-Feb-11 00:30N 51°07' E 001°46'613.0
2018-Feb-11 00:01N 51°02' E 001°40'713.3
2018-Feb-10 23:31N 50°57' E 001°33'713.7
2018-Feb-10 23:00N 50°51' E 001°27'713.7
2018-Feb-10 22:29N 50°44' E 001°23'5112.0
2018-Feb-10 18:12N 50°22' E 000°10'313.0
2018-Feb-10 18:00N 50°22' E 000°06'713.5
2018-Feb-10 17:29N 50°20' W 000°04'713.0
2018-Feb-10 16:56N 50°18' W 000°15'2713.2
2018-Feb-10 14:56N 50°10' W 000°55'613.2
2018-Feb-10 14:30N 50°09' W 001°03'713.3
2018-Feb-10 14:01N 50°07' W 001°13'713.3
2018-Feb-10 13:31N 50°05' W 001°23'713.3
2018-Feb-10 13:00N 50°04' W 001°33'713.5
2018-Feb-10 12:30N 50°02' W 001°43'713.3
2018-Feb-10 12:00N 49°60' W 001°53'713.2
2018-Feb-10 11:30N 49°59' W 002°03'13513.3
2018-Feb-10 01:20N 48°57' W 005°09'514.3
2018-Feb-10 00:59N 48°55' W 005°16'817.0
2018-Feb-10 00:30N 48°51' W 005°27'1215.6
2018-Feb-09 23:44N 48°43' W 005°40'716.8
2018-Feb-09 23:20N 48°37' W 005°45'61015.1
2018-Feb-08 07:00N 38°54' W 009°53'1212.2
2018-Feb-08 06:00N 38°42' W 009°51'1111.1
2018-Feb-08 05:00N 38°31' W 009°49'510.8
2018-Feb-08 04:30N 38°26' W 009°47'2110.3
2018-Feb-08 02:30N 38°06' W 009°40'1211.3
2018-Feb-08 01:27N 37°54' W 009°38'512.1
2018-Feb-08 01:00N 37°49' W 009°37'612.1
2018-Feb-08 00:30N 37°43' W 009°35'611.7
2018-Feb-08 00:00N 37°37' W 009°34'  

Dump ship's entire track history